Terminal Aerodrome Forecast
Issued by NWS Green Bay, WI

Home | Current Version | Previous Version | Text Only | Print | Product List | Glossary On
Versions: 1 2 3 4 5 6 7 8 9 10 11 12 13 14 15 16 17 18
000
FTUS43 KGRB 191458 AAB
TAFGRB
TAF AMD
KGRB 191458Z 1915/2012 10007KT P6SM OVC011
     FM191600 10007KT P6SM BKN013
      TEMPO 1916/1920 SCT013 SCT070
     FM192000 11009KT P6SM SCT070
     FM200700 13004KT P6SM SCT100 SCT200
      TEMPO 2008/2012 3SM BR SCT010 BKN100=

USA.gov is the U.S. government's official web portal to all federal, state and local government web resources and services.